Home > Products > Valid Products > TAF

000
FTUS43 KMPX 120308 AAA
TAFSTC
TAF AMD
KSTC 120308Z 1203/1224 25005KT 6SM BR OVC035
     FM120800 31007KT P6SM OVC050
     FM121200 32013KT P6SM SCT250
     FM121500 33015G22KT P6SM SKC=



000
FTUS43 KMPX 120307 AAA
TAFAXN
TAF AMD
KAXN 120307Z 1203/1224 30009KT P6SM OVC035
     FM120900 33012KT P6SM SCT030 OVC050
     FM121500 33016G24KT P6SM SCT250
     FM122200 33013KT P6SM SKC=



000
FTUS43 KMPX 120305 CCA
TAFMSP
TAF COR
KMSP 120305Z 1203/1306 25007KT 5SM -SN OVC028
      TEMPO 1203/1204 3SM -SN OVC025
     FM120500 31008KT P6SM OVC025
     FM121000 32013KT P6SM SCT030
     FM121500 32016G23KT P6SM FEW040 SCT250=



000
FTUS43 KMPX 120250 AAB
TAFMSP
TAF AMD
KMSP 120250Z 1203/1306 25007KT 5SM -SN OVC035
      TEMPO 1203/1204 3SM -SN BKN025 OVC030
     FM120500 31008KT P6SM OVC025
     FM121000 32013KT P6SM SCT030
     FM121500 32016G23KT P6SM FEW040 SCT250=



000
FTUS43 KMPX 120208 AAA
TAFMSP
TAF AMD
KMSP 120208Z 1202/1306 23007KT 5SM -SN OVC035
      TEMPO 1202/1204 2SM -SN BKN025 OVC030
     FM120500 31008KT P6SM OVC025
     FM121000 32013KT P6SM SCT030
     FM121500 32016G23KT P6SM FEW040 SCT250=



000
FTUS43 KMPX 112328
TAFSTC
TAF
KSTC 112328Z 1200/1224 23006KT 5SM -SN BKN025 OVC035
      TEMPO 1200/1201 2SM -SN OVC023
     FM120130 24005KT P6SM -SN OVC025
     FM120300 27004KT P6SM OVC020
     FM120600 31007KT P6SM OVC050
     FM121200 32013KT P6SM SCT250
     FM121500 33015G22KT P6SM SKC=



000
FTUS43 KMPX 112328
TAFAXN
TAF
KAXN 112328Z 1200/1224 28006KT 5SM HZ OVC014
     FM120500 33009KT P6SM OVC025
     FM120900 33012KT P6SM SCT030 OVC050
     FM121500 33016G24KT P6SM SCT250
     FM122200 33013KT P6SM SKC=



000
FTUS43 KMPX 112328
TAFMSP
TAF
KMSP 112328Z 1200/1306 23007KT P6SM -SN OVC050
      TEMPO 1200/1203 4SM -SN BKN025 OVC040
     FM120300 26006KT P6SM BKN025 OVC035
     FM120500 31008KT P6SM OVC025
     FM121000 32013KT P6SM SCT030
     FM121500 32016G23KT P6SM FEW040 SCT250=



000
FTUS43 KMPX 112328
TAFEAU
TAF
KEAU 112328Z 1200/1224 23004KT P6SM OVC060
     FM120400 26005KT P6SM SCT025 OVC040
     FM120700 28006KT P6SM OVC025
     FM121100 31011KT P6SM SCT030
     FM121500 32015G22KT P6SM SCT040=



000
FTUS43 KMPX 112328
TAFRWF
TAF
KRWF 112328Z 1200/1224 20007KT 5SM BR OVC025
     FM120200 26005KT P6SM OVC015
     FM120700 32010KT P6SM OVC050
     FM121400 32015G23KT P6SM SKC=



000
FTUS43 KMPX 112328
TAFSTC
TAF
KSTC 112328Z 1200/1224 23006KT 5SM -SN BKN025 OVC035
      TEMPO 1200/1201 2SM -SN OVC023
     FM120130 24005KT P6SM -SN OVC025
     FM120300 27004KT P6SM OVC020
     FM120600 31007KT P6SM OVC050
     FM121200 32013KT P6SM SCT250
     FM121500 33015G22KT P6SM SKC=



000
FTUS43 KMPX 112328
TAFMSP
TAF
KMSP 112328Z 1200/1306 23007KT P6SM -SN OVC050
      TEMPO 1200/1203 4SM -SN BKN025 OVC040
     FM120300 26006KT P6SM BKN025 OVC035
     FM120500 31008KT P6SM OVC025
     FM121000 32013KT P6SM SCT030
     FM121500 32016G23KT P6SM FEW040 SCT250=



000
FTUS43 KMPX 112328
TAFEAU
TAF
KEAU 112328Z 1200/1224 23004KT P6SM OVC060
     FM120400 26005KT P6SM SCT025 OVC040
     FM120700 28006KT P6SM OVC025
     FM121100 31011KT P6SM SCT030
     FM121500 32015G22KT P6SM SCT040=



000
FTUS43 KMPX 112328
TAFAXN
TAF
KAXN 112328Z 1200/1224 28006KT 5SM HZ OVC014
     FM120500 33009KT P6SM OVC025
     FM120900 33012KT P6SM SCT030 OVC050
     FM121500 33016G24KT P6SM SCT250
     FM122200 33013KT P6SM SKC=



000
FTUS43 KMPX 112328
TAFRWF
TAF
KRWF 112328Z 1200/1224 20007KT 5SM BR OVC025
     FM120200 26005KT P6SM OVC015
     FM120700 32010KT P6SM OVC050
     FM121400 32015G23KT P6SM SKC=



000
FTUS43 KMPX 112245 AAB
TAFSTC
TAF AMD
KSTC 112245Z 1123/1218 23006KT 5SM -SN SCT025 OVC035
      TEMPO 1123/1124 2SM -SN OVC025
     FM120100 24005KT P6SM -SN OVC025
     FM120300 27004KT P6SM OVC020
     FM120600 31007KT P6SM BKN050
     FM121000 32014G21KT P6SM SKC=



000
FTUS43 KMPX 112228 AAA
TAFRWF
TAF AMD
KRWF 112228Z 1122/1218 20007KT 6SM -SN SCT025 OVC035
     FM120200 26005KT P6SM OVC015
     FM120700 32010KT P6SM OVC050
     FM121400 32015G23KT P6SM SKC=



000
FTUS43 KMPX 112227 AAA
TAFSTC
TAF AMD
KSTC 112227Z 1122/1218 23006KT 5SM -SN SCT025 OVC035
     FM120000 24005KT P6SM -SN OVC025
     FM120300 27004KT P6SM OVC020
     FM120600 31007KT P6SM BKN050
     FM121000 32014G21KT P6SM SKC=



000
FTUS43 KMPX 112113 AAA
TAFMSP
TAF AMD
KMSP 112113Z 1121/1224 23005KT P6SM OVC050
     FM120300 26006KT P6SM BKN025 OVC040
     FM120800 31008KT P6SM BKN050
     FM121200 32013G20KT P6SM SKC=



000
FTUS43 KMPX 112113 AAA
TAFMSP
TAF AMD
KMSP 112113Z 1121/1224 23005KT P6SM OVC050
     FM120300 26006KT P6SM BKN025 OVC040
     FM120800 31008KT P6SM BKN050
     FM121200 32013G20KT P6SM SKC=



000
FTUS43 KMPX 111739
TAFAXN
TAF
KAXN 111739Z 1118/1218 18006KT P6SM OVC040
     FM112000 22006KT P6SM -SN OVC025
     FM112300 28006KT P6SM OVC015
     FM120500 33009KT P6SM BKN050
     FM120900 33014G22KT P6SM SKC=



000
FTUS43 KMPX 111739
TAFEAU
TAF
KEAU 111739Z 1118/1218 24006KT P6SM SCT250
     FM112000 23004KT P6SM OVC070
     FM120400 28005KT P6SM SCT025 OVC040
     FM121100 31011G19KT P6SM SKC=



000
FTUS43 KMPX 111739
TAFRWF
TAF
KRWF 111739Z 1118/1218 19006KT P6SM SCT025 OVC035
     FM111900 18007KT P6SM -SN OVC020
     FM120200 26005KT P6SM OVC015
     FM120700 32010KT P6SM OVC050
     FM121400 32015G23KT P6SM SKC=



000
FTUS43 KMPX 111739
TAFSTC
TAF
KSTC 111739Z 1118/1218 18005KT P6SM OVC045
     FM112300 21005KT P6SM OVC025
     FM120300 27004KT P6SM OVC020
     FM120600 31007KT P6SM BKN050
     FM121000 32014G21KT P6SM SKC=



000
FTUS43 KMPX 111739
TAFMSP
TAF
KMSP 111739Z 1118/1224 20005KT P6SM OVC050
     FM120300 29006KT P6SM OVC025
     FM120800 31008KT P6SM BKN050
     FM121200 32013G20KT P6SM SKC=



000
FTUS43 KMPX 111739
TAFRWF
TAF
KRWF 111739Z 1118/1218 19006KT P6SM SCT025 OVC035
     FM111900 18007KT P6SM -SN OVC020
     FM120200 26005KT P6SM OVC015
     FM120700 32010KT P6SM OVC050
     FM121400 32015G23KT P6SM SKC=



000
FTUS43 KMPX 111739
TAFAXN
TAF
KAXN 111739Z 1118/1218 18006KT P6SM OVC040
     FM112000 22006KT P6SM -SN OVC025
     FM112300 28006KT P6SM OVC015
     FM120500 33009KT P6SM BKN050
     FM120900 33014G22KT P6SM SKC=



000
FTUS43 KMPX 111739
TAFMSP
TAF
KMSP 111739Z 1118/1224 20005KT P6SM OVC050
     FM120300 29006KT P6SM OVC025
     FM120800 31008KT P6SM BKN050
     FM121200 32013G20KT P6SM SKC=



000
FTUS43 KMPX 111739
TAFEAU
TAF
KEAU 111739Z 1118/1218 24006KT P6SM SCT250
     FM112000 23004KT P6SM OVC070
     FM120400 28005KT P6SM SCT025 OVC040
     FM121100 31011G19KT P6SM SKC=



000
FTUS43 KMPX 111739
TAFSTC
TAF
KSTC 111739Z 1118/1218 18005KT P6SM OVC045
     FM112300 21005KT P6SM OVC025
     FM120300 27004KT P6SM OVC020
     FM120600 31007KT P6SM BKN050
     FM121000 32014G21KT P6SM SKC=



000
FTUS43 KMPX 111450 AAA
TAFMSP
TAF AMD
KMSP 111450Z 1115/1218 VRB02KT P6SM SCT250
     FM111800 22005KT P6SM BKN100
     FM120300 29006KT P6SM OVC025
     FM120800 31008KT P6SM BKN050
     FM121400 32013G20KT P6SM SKC=



000
FTUS43 KMPX 111450 AAA
TAFMSP
TAF AMD
KMSP 111450Z 1115/1218 VRB02KT P6SM SCT250
     FM111800 22005KT P6SM BKN100
     FM120300 29006KT P6SM OVC025
     FM120800 31008KT P6SM BKN050
     FM121400 32013G20KT P6SM SKC=



000
FTUS43 KMPX 111120
TAFMSP
TAF
KMSP 111120Z 1112/1218 VRB02KT P6SM SKC
     FM111800 22005KT P6SM BKN100
     FM120300 29006KT P6SM OVC025
     FM120800 31008KT P6SM OVC050=



000
FTUS43 KMPX 111120
TAFAXN
TAF
KAXN 111120Z 1112/1212 VRB03KT P6SM SKC
     FM111500 18006KT P6SM OVC050
     FM112000 21006KT P6SM OVC025
     FM120300 31006KT P6SM OVC015
     FM120600 33009KT P6SM BKN050=



000
FTUS43 KMPX 111120
TAFSTC
TAF
KSTC 111120Z 1112/1212 VRB03KT P6SM SKC
     FM111600 18005KT P6SM OVC050
     FM112100 21005KT P6SM OVC025
     FM120300 27004KT P6SM OVC015
     FM120700 31007KT P6SM BKN050=



000
FTUS43 KMPX 111120
TAFRWF
TAF
KRWF 111120Z 1112/1212 20006KT P6SM SCT025 BKN050
      TEMPO 1117/1121 OVC015
     FM112100 18007KT P6SM OVC015
     FM120000 23005KT 5SM -SN BR OVC015
     FM120700 32010KT P6SM OVC050=



000
FTUS43 KMPX 111120
TAFEAU
TAF
KEAU 111120Z 1112/1212 VRB03KT P6SM SKC
     FM111700 24006KT P6SM BKN150
     FM120000 23004KT P6SM OVC050
     FM120400 28005KT P6SM BKN025
     FM121000 30007KT P6SM BKN050=



000
FTUS43 KMPX 110845 AAA
TAFMSP
TAF AMD
KMSP 110845Z 1109/1212 01003KT P6SM SKC
     FM111200 23004KT P6SM FEW120
     FM112000 22005KT P6SM OVC050
     FM120500 29006KT P6SM OVC025=



000
FTUS43 KMPX 110520
TAFRWF
TAF
KRWF 110520Z 1106/1206 VRB03KT P6SM SCT060 OVC090
     FM111200 20006KT P6SM BKN050 OVC100
     FM112100 18007KT P6SM OVC025
     FM120000 23005KT 5SM -SN BR OVC015=



000
FTUS43 KMPX 110520
TAFAXN
TAF
KAXN 110520Z 1106/1206 VRB03KT P6SM OVC070
     FM111500 18006KT P6SM OVC050
     FM112000 21006KT P6SM OVC025
     FM120300 31006KT P6SM OVC015=



000
FTUS43 KMPX 110520
TAFSTC
TAF
KSTC 110520Z 1106/1206 VRB03KT P6SM BKN090
     FM111500 18005KT P6SM OVC050
     FM112100 21005KT P6SM OVC025
     FM120300 27004KT P6SM OVC015=



000
FTUS43 KMPX 110520
TAFAXN
TAF
KAXN 110520Z 1106/1206 VRB03KT P6SM OVC070
     FM111500 18006KT P6SM OVC050
     FM112000 21006KT P6SM OVC025
     FM120300 31006KT P6SM OVC015=



000
FTUS43 KMPX 110520
TAFRWF
TAF
KRWF 110520Z 1106/1206 VRB03KT P6SM SCT060 OVC090
     FM111200 20006KT P6SM BKN050 OVC100
     FM112100 18007KT P6SM OVC025
     FM120000 23005KT 5SM -SN BR OVC015=



000
FTUS43 KMPX 110520
TAFEAU
TAF
KEAU 110520Z 1106/1206 VRB03KT P6SM SCT120
     FM111500 24006KT P6SM BKN150
     FM120000 23004KT P6SM OVC050=



000
FTUS43 KMPX 110520
TAFMSP
TAF
KMSP 110520Z 1106/1212 32003KT P6SM OVC110
     FM111600 25005KT P6SM BKN120
     FM112000 22005KT P6SM OVC050
     FM120500 29006KT P6SM OVC025=



000
FTUS43 KMPX 110520
TAFMSP
TAF
KMSP 110520Z 1106/1212 32003KT P6SM OVC110
     FM111600 25005KT P6SM BKN120
     FM112000 22005KT P6SM OVC050
     FM120500 29006KT P6SM OVC025=



000
FTUS43 KMPX 110520
TAFSTC
TAF
KSTC 110520Z 1106/1206 VRB03KT P6SM BKN090
     FM111500 18005KT P6SM OVC050
     FM112100 21005KT P6SM OVC025
     FM120300 27004KT P6SM OVC015=



000
FTUS43 KMPX 110520
TAFEAU
TAF
KEAU 110520Z 1106/1206 VRB03KT P6SM SCT120
     FM111500 24006KT P6SM BKN150
     FM120000 23004KT P6SM OVC050=



000
FTUS43 KMPX 110245 AAA
TAFMSP
TAF AMD
KMSP 110245Z 1103/1206 35004KT P6SM OVC100
     FM111600 25005KT P6SM BKN120
     FM112000 22005KT P6SM OVC050=



000
FTUS43 KMPX 102320
TAFMSP
TAF
KMSP 102320Z 1100/1206 02006KT P6SM SCT080 BKN120
     FM110300 34003KT P6SM FEW080 SCT120
     FM111600 25005KT P6SM BKN120
     FM112000 22005KT P6SM OVC050=



000
FTUS43 KMPX 102320
TAFAXN
TAF
KAXN 102320Z 1100/1124 VRB03KT P6SM SCT060 OVC090
     FM111500 18006KT P6SM OVC050
     FM112000 21006KT P6SM OVC025=



000
FTUS43 KMPX 102320
TAFEAU
TAF
KEAU 102320Z 1100/1124 VRB03KT P6SM SCT120
     FM111500 24006KT P6SM BKN150=



000
FTUS43 KMPX 102320
TAFSTC
TAF
KSTC 102320Z 1100/1124 VRB03KT P6SM BKN090
     FM111500 18005KT P6SM OVC050
     FM112100 21005KT P6SM OVC025=



000
FTUS43 KMPX 102320
TAFRWF
TAF
KRWF 102320Z 1100/1124 33004KT P6SM OVC080
     FM111200 20006KT P6SM BKN050 OVC100=



000
FTUS43 KMPX 102320
TAFMSP
TAF
KMSP 102320Z 1100/1206 02006KT P6SM SCT080 BKN120
     FM110300 34003KT P6SM FEW080 SCT120
     FM111600 25005KT P6SM BKN120
     FM112000 22005KT P6SM OVC050=



000
FTUS43 KMPX 102320
TAFSTC
TAF
KSTC 102320Z 1100/1124 VRB03KT P6SM BKN090
     FM111500 18005KT P6SM OVC050
     FM112100 21005KT P6SM OVC025=



000
FTUS43 KMPX 102320
TAFAXN
TAF
KAXN 102320Z 1100/1124 VRB03KT P6SM SCT060 OVC090
     FM111500 18006KT P6SM OVC050
     FM112000 21006KT P6SM OVC025=



000
FTUS43 KMPX 102320
TAFEAU
TAF
KEAU 102320Z 1100/1124 VRB03KT P6SM SCT120
     FM111500 24006KT P6SM BKN150=



000
FTUS43 KMPX 102320
TAFRWF
TAF
KRWF 102320Z 1100/1124 33004KT P6SM OVC080
     FM111200 20006KT P6SM BKN050 OVC100=



000
FTUS43 KMPX 102100 AAA
TAFMSP
TAF AMD
KMSP 102100Z 1021/1124 02004KT P6SM BKN120
     FM110800 34004KT P6SM SCT150
     FM111600 25005KT P6SM BKN150
     FM112000 20005KT P6SM OVC100=



000
FTUS43 KMPX 101720
TAFMSP
TAF
KMSP 101720Z 1018/1124 02004KT P6SM BKN120
     FM110800 34004KT P6SM SCT150
     FM111600 25005KT P6SM BKN150
     FM112000 20005KT P6SM OVC100=



000
FTUS43 KMPX 101720
TAFSTC
TAF
KSTC 101720Z 1018/1118 03003KT P6SM BKN080 OVC150
     FM110600 VRB02KT P6SM SCT150
     FM111500 21003KT P6SM BKN120=



000
FTUS43 KMPX 101720
TAFEAU
TAF
KEAU 101720Z 1018/1118 33003KT P6SM SCT020
     FM110000 VRB03KT P6SM SKC=



000
FTUS43 KMPX 101720
TAFRWF
TAF
KRWF 101720Z 1018/1118 12006KT 4SM -SN BR SCT025 OVC035
     FM101830 09006KT P6SM OVC040
     FM110300 33004KT P6SM BKN050
     FM111200 22004KT P6SM BKN050 OVC120=



000
FTUS43 KMPX 101720
TAFAXN
TAF
KAXN 101720Z 1018/1118 10007KT P6SM BKN050
     FM110400 VRB02KT P6SM SCT060 BKN200
     FM111500 18003KT P6SM OVC100=



000
FTUS43 KMPX 101502 AAA
TAFRWF
TAF AMD
KRWF 101502Z 1015/1112 04004KT 2SM -SN BR SCT015 OVC025
     FM101700 07005KT P6SM OVC035
     FM102300 07004KT P6SM OVC040
     FM110000 VRB02KT P6SM BKN050 OVC120=



000
FTUS43 KMPX 101501 AAA
TAFMSP
TAF AMD
KMSP 101501Z 1015/1118 02004KT P6SM OVC130
     FM102100 35004KT P6SM SCT200
     FM110300 32004KT P6SM SCT050 OVC100
     FM110800 31004KT P6SM BKN050 OVC100=



000
FTUS43 KMPX 101120
TAFRWF
TAF
KRWF 101120Z 1012/1112 04004KT 6SM -SHSN BKN040 OVC090
      TEMPO 1012/1016 3SM -SN OVC020
     FM101800 12005KT P6SM OVC035
     FM102300 07004KT P6SM OVC040
     FM110000 VRB02KT P6SM BKN050 OVC120=



000
FTUS43 KMPX 101120
TAFAXN
TAF
KAXN 101120Z 1012/1112 09004KT P6SM BKN050
      TEMPO 1012/1015 6SM -SHSN OVC035
     FM110000 33004KT P6SM BKN040
     FM110400 VRB02KT P6SM BKN100=



000
FTUS43 KMPX 101120
TAFMSP
TAF
KMSP 101120Z 1012/1118 03008KT P6SM SCT180
     FM101600 05005KT P6SM SCT100 OVC200
     FM102100 35005KT P6SM BKN100 OVC200
     FM110300 32004KT P6SM SCT050 OVC100
     FM110800 31004KT P6SM BKN050 OVC100=



000
FTUS43 KMPX 101120
TAFSTC
TAF
KSTC 101120Z 1012/1112 35005KT P6SM FEW150
     FM101400 03003KT P6SM BKN120
     FM101700 06004KT P6SM BKN080 OVC150
     FM110000 VRB02KT P6SM SCT050 BKN150=



000
FTUS43 KMPX 101120
TAFEAU
TAF
KEAU 101120Z 1012/1112 32005KT P6SM SKC=



000
FTUS43 KMPX 101000 AAA
TAFEAU
TAF AMD
KEAU 101000Z 1010/1106 32005KT P6SM SKC=



000
FTUS43 KMPX 100956 AAA
TAFRWF
TAF AMD
KRWF 100956Z 1010/1106 02004KT P6SM BKN050 OVC100
     FM101400 04004KT P6SM BKN040 OVC090
      TEMPO 1014/1018 6SM -SN OVC035
     FM101800 12005KT P6SM OVC035
     FM102300 07004KT P6SM OVC040
     FM110000 VRB02KT P6SM BKN050 OVC120=



000
FTUS43 KMPX 100956 AAA
TAFRWF
TAF AMD
KRWF 100956Z 1010/1106 02004KT P6SM BKN050 OVC100
     FM101400 04004KT P6SM BKN040 OVC090
      TEMPO 1014/1018 6SM -SN OVC035
     FM101800 12005KT P6SM OVC035
     FM102300 07004KT P6SM OVC040
     FM110000 VRB02KT P6SM BKN050 OVC120=



000
FTUS43 KMPX 100954 AAA
TAFSTC
TAF AMD
KSTC 100954Z 1010/1106 35005KT P6SM FEW150
     FM101400 03003KT P6SM BKN120
     FM101700 06004KT P6SM BKN080 OVC150
     FM110000 VRB02KT P6SM SCT050 BKN150=



000
FTUS43 KMPX 100954 AAA
TAFSTC
TAF AMD
KSTC 100954Z 1010/1106 35005KT P6SM FEW150
     FM101400 03003KT P6SM BKN120
     FM101700 06004KT P6SM BKN080 OVC150
     FM110000 VRB02KT P6SM SCT050 BKN150=



000
FTUS43 KMPX 100951 AAA
TAFAXN
TAF AMD
KAXN 100951Z 1010/1106 03003KT P6SM SCT060 BKN100
     FM101300 09004KT P6SM BKN050
      TEMPO 1014/1017 6SM -SN OVC035
     FM110000 33004KT P6SM BKN040
     FM110400 VRB02KT P6SM BKN100=



000
FTUS43 KMPX 100951 AAA
TAFAXN
TAF AMD
KAXN 100951Z 1010/1106 03003KT P6SM SCT060 BKN100
     FM101300 09004KT P6SM BKN050
      TEMPO 1014/1017 6SM -SN OVC035
     FM110000 33004KT P6SM BKN040
     FM110400 VRB02KT P6SM BKN100=



000
FTUS43 KMPX 100856 AAA
TAFMSP
TAF AMD
KMSP 100856Z 1009/1112 35008KT P6SM SCT180
     FM101600 02005KT P6SM SCT100 OVC200
     FM102100 35005KT P6SM BKN100 OVC200
     FM110300 32004KT P6SM SCT050 OVC100
     FM110800 31004KT P6SM BKN050 OVC100=



000
FTUS43 KMPX 100523
TAFEAU
TAF
KEAU 100523Z 1006/1106 32006KT P6SM SKC=



000
FTUS43 KMPX 100523
TAFRWF
TAF
KRWF 100523Z 1006/1106 01007KT P6SM SCT120
     FM100900 02004KT P6SM BKN050 OVC100
     FM101400 04004KT P6SM OVC040 PROB30 1015/1018 4SM -SN OVC030
     FM101800 12005KT P6SM OVC035
     FM102300 07004KT P6SM OVC040
     FM110400 30004KT P6SM BKN050 OVC150=



000
FTUS43 KMPX 100523
TAFAXN
TAF
KAXN 100523Z 1006/1106 01005KT P6SM SCT100
     FM101000 03003KT P6SM SCT060 BKN100
     FM101300 09004KT P6SM BKN050
     FM101600 10005KT P6SM OVC050 PROB30 1016/1018 4SM -SN OVC035
     FM110000 33004KT P6SM BKN040=



000
FTUS43 KMPX 100523
TAFSTC
TAF
KSTC 100523Z 1006/1106 36005KT P6SM SKC
     FM101400 03003KT P6SM BKN120
     FM101700 06004KT P6SM BKN080 OVC150
     FM102300 36003KT P6SM BKN050 OVC100
     FM110200 32003KT P6SM BKN050=



000
FTUS43 KMPX 100523
TAFMSP
TAF
KMSP 100523Z 1006/1112 35008KT P6SM SKC
     FM101600 02005KT P6SM SCT100 OVC200
     FM102100 35005KT P6SM BKN100 OVC200
     FM110300 32004KT P6SM SCT050 OVC100
     FM110800 31004KT P6SM BKN050 OVC100=



000
FTUS43 KMPX 100249 AAA
TAFMSP
TAF AMD
KMSP 100249Z 1003/1106 32008KT P6SM SKC
     FM100700 33008KT P6SM SCT200
     FM101600 36004KT P6SM BKN100
     FM101900 35004KT P6SM BKN070=



000
FTUS43 KMPX 092327
TAFAXN
TAF
KAXN 092327Z 1000/1024 33011KT P6SM SCT200
     FM100600 34007KT P6SM SCT200
     FM101200 02004KT P6SM BKN090
     FM101500 08005KT P6SM BKN060=



000
FTUS43 KMPX 092327
TAFRWF
TAF
KRWF 092327Z 1000/1024 32013KT P6SM FEW110
     FM100400 32009KT P6SM SCT250
     FM101100 33004KT P6SM BKN110
     FM101400 04005KT P6SM BKN070
     FM101800 12005KT P6SM OVC035=



000
FTUS43 KMPX 092327
TAFSTC
TAF
KSTC 092327Z 1000/1024 32012KT P6SM SKC
     FM100600 34008KT P6SM SKC
     FM101400 01004KT P6SM SCT200
     FM101700 04004KT P6SM BKN110
     FM102100 03004KT P6SM SCT100
     FM102200 02004KT P6SM BKN070=



000
FTUS43 KMPX 092327
TAFMSP
TAF
KMSP 092327Z 1000/1106 33012KT P6SM SKC
     FM100700 33008KT P6SM SCT200
     FM101600 36004KT P6SM BKN100
     FM101900 35004KT P6SM BKN070=



000
FTUS43 KMPX 092327
TAFEAU
TAF
KEAU 092327Z 1000/1024 33011KT P6SM SKC
     FM101100 33007KT P6SM SCT250=



000
FTUS43 KMPX 092327
TAFSTC
TAF
KSTC 092327Z 1000/1024 32012KT P6SM SKC
     FM100600 34008KT P6SM SKC
     FM101400 01004KT P6SM SCT200
     FM101700 04004KT P6SM BKN110
     FM102100 03004KT P6SM SCT100
     FM102200 02004KT P6SM BKN070=



000
FTUS43 KMPX 092327
TAFMSP
TAF
KMSP 092327Z 1000/1106 33012KT P6SM SKC
     FM100700 33008KT P6SM SCT200
     FM101600 36004KT P6SM BKN100
     FM101900 35004KT P6SM BKN070=



000
FTUS43 KMPX 092327
TAFAXN
TAF
KAXN 092327Z 1000/1024 33011KT P6SM SCT200
     FM100600 34007KT P6SM SCT200
     FM101200 02004KT P6SM BKN090
     FM101500 08005KT P6SM BKN060=



000
FTUS43 KMPX 092327
TAFEAU
TAF
KEAU 092327Z 1000/1024 33011KT P6SM SKC
     FM101100 33007KT P6SM SCT250=



000
FTUS43 KMPX 092327
TAFRWF
TAF
KRWF 092327Z 1000/1024 32013KT P6SM FEW110
     FM100400 32009KT P6SM SCT250
     FM101100 33004KT P6SM BKN110
     FM101400 04005KT P6SM BKN070
     FM101800 12005KT P6SM OVC035=



000
FTUS43 KMPX 092059 AAA
TAFMSP
TAF AMD
KMSP 092059Z 0921/1024 33015G22KT P6SM FEW020
     FM100000 32010KT P6SM SKC
     FM100900 35005KT P6SM SCT200=



000
FTUS43 KMPX 091744 CCB
TAFRWF
TAF COR
KRWF 091744Z 0918/1018 33012G20KT P6SM FEW020
     FM100200 32011KT P6SM SKC
     FM100600 34003KT P6SM SCT200=



000
FTUS43 KMPX 091744 CCB
TAFRWF
TAF COR
KRWF 091744Z 0918/1018 33012G20KT P6SM FEW020
     FM100200 32011KT P6SM SKC
     FM100600 34003KT P6SM SCT200=



000
FTUS43 KMPX 091738
TAFMSP
TAF
KMSP 091738Z 0918/1024 33012G20KT P6SM SKC
     FM092000 33015G22KT P6SM SCT020
     FM100000 32010KT P6SM SKC
     FM100900 35005KT P6SM SCT200=



000
FTUS43 KMPX 091738
TAFRWF
TAF
KRWF 091738Z 0918/1018 33012KT P6SM FEW020
     FM100200 32011KT P6SM SKC
     FM100600 34003KT P6SM SCT200=



000
FTUS43 KMPX 091738
TAFAXN
TAF
KAXN 091738Z 0918/1018 34013KT P6SM FEW020
     FM100000 33009KT P6SM SKC
     FM100600 36004KT P6SM SCT200
     FM101500 09005KT P6SM OVC050=



000
FTUS43 KMPX 091738 CCA
TAFRWF
TAF COR
KRWF 091738Z 0918/1018 33012G20KT P6SM FEW020
     FM100200 32011KT P6SM SKC
     FM100600 34003KT P6SM SCT200=



000
FTUS43 KMPX 091738
TAFAXN
TAF
KAXN 091738Z 0918/1018 34013KT P6SM FEW020
     FM100000 33009KT P6SM SKC
     FM100600 36004KT P6SM SCT200
     FM101500 09005KT P6SM OVC050=



000
FTUS43 KMPX 091738
TAFSTC
TAF
KSTC 091738Z 0918/1018 33010G20KT P6SM SKC
     FM092000 33010G18KT P6SM SCT020
     FM100000 32009KT P6SM SKC
     FM100800 34004KT P6SM SCT250=



000
FTUS43 KMPX 091738
TAFMSP
TAF
KMSP 091738Z 0918/1024 33012G20KT P6SM SKC
     FM092000 33015G22KT P6SM SCT020
     FM100000 32010KT P6SM SKC
     FM100900 35005KT P6SM SCT200=



000
FTUS43 KMPX 091738
TAFRWF
TAF
KRWF 091738Z 0918/1018 33012KT P6SM FEW020
     FM100200 32011KT P6SM SKC
     FM100600 34003KT P6SM SCT200=



000
FTUS43 KMPX 091738 CCA
TAFRWF
TAF COR
KRWF 091738Z 0918/1018 33012G20KT P6SM FEW020
     FM100200 32011KT P6SM SKC
     FM100600 34003KT P6SM SCT200=



000
FTUS43 KMPX 091738
TAFEAU
TAF
KEAU 091738Z 0918/1018 33010G16KT P6SM SKC
     FM100100 32009KT P6SM SKC
     FM100800 31005KT P6SM SKC=



000
FTUS43 KMPX 091738
TAFSTC
TAF
KSTC 091738Z 0918/1018 33010G20KT P6SM SKC
     FM092000 33010G18KT P6SM SCT020
     FM100000 32009KT P6SM SKC
     FM100800 34004KT P6SM SCT250=



000
FTUS43 KMPX 091738
TAFEAU
TAF
KEAU 091738Z 0918/1018 33010G16KT P6SM SKC
     FM100100 32009KT P6SM SKC
     FM100800 31005KT P6SM SKC=



000
FTUS43 KMPX 091457 AAA
TAFAXN
TAF AMD
KAXN 091457Z 0915/1012 34013KT P6SM SKC
      TEMPO 0916/0918 OVC060
     FM100000 33009KT P6SM SCT200=



000
FTUS43 KMPX 091454 AAA
TAFSTC
TAF AMD
KSTC 091454Z 0915/1012 33010G20KT P6SM SKC
     FM092000 33010G18KT P6SM SCT020
     FM100100 32009KT P6SM SKC
     FM100800 34004KT P6SM FEW250=



000
FTUS43 KMPX 091452 AAA
TAFMSP
TAF AMD
KMSP 091452Z 0915/1018 33012G20KT P6SM SKC
     FM092000 33015G23KT P6SM SCT020
     FM100000 32010KT P6SM SKC
     FM100900 35005KT P6SM FEW200=



000
FTUS43 KMPX 091452 AAA
TAFMSP
TAF AMD
KMSP 091452Z 0915/1018 33012G20KT P6SM SKC
     FM092000 33015G23KT P6SM SCT020
     FM100000 32010KT P6SM SKC
     FM100900 35005KT P6SM FEW200=



000
FTUS43 KMPX 091137
TAFMSP
TAF
KMSP 091137Z 0912/1018 33015G20KT P6SM SKC
     FM091500 33012KT P6SM SCT025 BKN035
     FM100000 33009KT P6SM SCT200
     FM100900 35005KT P6SM FEW200=



000
FTUS43 KMPX 091137
TAFEAU
TAF
KEAU 091137Z 0912/1012 33013KT P6SM BKN080
     FM091700 33010G16KT P6SM BKN050
     FM100100 32009KT P6SM SKC=



000
FTUS43 KMPX 091137
TAFRWF
TAF
KRWF 091137Z 0912/1012 33012G19KT P6SM SKC
     FM091700 33012KT P6SM OVC050
     FM100200 32011KT P6SM SCT200=



000
FTUS43 KMPX 091137
TAFAXN
TAF
KAXN 091137Z 0912/1012 34013KT P6SM SKC
     FM091500 33012KT P6SM OVC035
     FM100000 33009KT P6SM SCT200=



000
FTUS43 KMPX 091137
TAFSTC
TAF
KSTC 091137Z 0912/1012 33010G17KT P6SM SKC
     FM091600 33012KT P6SM OVC045
     FM100100 32009KT P6SM SCT200=



000
FTUS43 KMPX 090951 AAA
TAFSTC
TAF AMD
KSTC 090951Z 0910/1006 33012G20KT P6SM SCT025
     FM091200 32011G19KT P6SM SKC
     FM100100 31010KT P6SM SKC=



000
FTUS43 KMPX 090950 AAB
TAFAXN
TAF AMD
KAXN 090950Z 0910/1006 34015KT P6SM SCT015
      TEMPO 0910/0911 BKN015
     FM091200 34013KT P6SM SKC
     FM100000 33009KT P6SM SCT250=



000
FTUS43 KMPX 090948 AAA
TAFEAU
TAF AMD
KEAU 090948Z 0910/1006 33010G16KT 6SM -SN SCT025 OVC060
     FM091200 33011G19KT P6SM BKN040
     FM091700 33011G18KT P6SM SCT040
     FM100100 32009KT P6SM SKC=



000
FTUS43 KMPX 090945 AAA
TAFRWF
TAF AMD
KRWF 090945Z 0910/1006 33012G20KT P6SM SCT015
     FM091500 33010G19KT P6SM SKC
     FM100200 32011KT P6SM SCT250=



000
FTUS43 KMPX 090835 AAA
TAFMSP
TAF AMD
KMSP 090835Z 0909/1012 33014G21KT P6SM SCT025 BKN050
     FM091400 32015G22KT P6SM SCT200
     FM100300 31010KT P6SM SKC=



000
FTUS43 KMPX 090835 AAA
TAFMSP
TAF AMD
KMSP 090835Z 0909/1012 33014G21KT P6SM SCT025 BKN050
     FM091400 32015G22KT P6SM SCT200
     FM100300 31010KT P6SM SKC=



000
FTUS43 KMPX 090707 AAA
TAFAXN
TAF AMD
KAXN 090707Z 0907/1006 34017KT P6SM BKN025
     FM090930 34015KT P6SM SCT025
     FM091200 34013KT P6SM SKC
     FM100000 33009KT P6SM SCT250=



000
FTUS43 KMPX 090534
TAFMSP
TAF
KMSP 090534Z 0906/1012 33016G24KT P6SM SCT025 OVC050
     FM091000 33016G24KT P6SM SCT025 BKN050
     FM091400 32015G24KT P6SM SCT200
     FM100300 31010KT P6SM SKC=



000
FTUS43 KMPX 090534
TAFRWF
TAF
KRWF 090534Z 0906/1006 33019G27KT P6SM BKN025
     FM091100 32018G25KT P6SM SCT025
     FM091500 32016G22KT P6SM SKC
     FM100200 32011KT P6SM SCT250=



000
FTUS43 KMPX 090534
TAFAXN
TAF
KAXN 090534Z 0906/1006 34017G24KT P6SM BKN025
     FM090730 34015G22KT P6SM SCT025
     FM091100 34013G20KT P6SM SKC
     FM100000 33009KT P6SM SCT250=



000
FTUS43 KMPX 090534
TAFSTC
TAF
KSTC 090534Z 0906/1006 33015G22KT P6SM BKN050
      TEMPO 0906/0908 BKN025
     FM090900 32015G22KT P6SM SCT030 BKN100
     FM091100 32013G19KT P6SM SKC
     FM100100 31010KT P6SM SKC=



000
FTUS43 KMPX 090534
TAFEAU
TAF
KEAU 090534Z 0906/1006 32010G16KT 6SM -SN OVC025
     FM091200 32013G21KT P6SM BKN030
     FM091700 33013G20KT P6SM FEW030 SCT250
     FM100100 32009KT P6SM SKC=



    US Dept of Commerce
    National Oceanic and Atmospheric Administration
    National Weather Service
    1325 East West Highway
    Silver Spring, MD 20910
    Page Author: NWS Internet Services Team
Disclaimer
Information Quality
Credits
Glossary
Privacy Policy
Freedom of Information Act (FOIA)
About Us
Career Opportunities